Time;durP1;ratioP1;P1;durP2;ratioP2;P2;SDS_P1;SDS_P2;PMS_P1;PMS_P2;Temp;Humidity;BMP_temperature;BMP_pressure;BME280_temperature;BME280_humidity;BME280_pressure;Samples;Min_cycle;Max_cycle;Signal;HPM_P1;HPM_P2
2023/02/24 00:01:28;;;;;;;29.33;21.10;;;;;;;;;;5145641;27;20254;-83
2023/02/24 00:03:56;;;;;;;22.60;20.50;;;;;;;;;;5146841;27;20443;-82
2023/02/24 00:06:25;;;;;;;25.58;22.52;;;;;;;;;;5145901;27;20225;-82
2023/02/24 00:08:52;;;;;;;25.02;21.40;;;;;;;;;;5146526;27;20217;-82
2023/02/24 00:11:19;;;;;;;23.83;20.45;;;;;;;;;;5145805;27;20204;-82
2023/02/24 00:13:47;;;;;;;26.37;22.60;;;;;;;;;;5145441;27;20563;-82
2023/02/24 00:16:16;;;;;;;23.43;20.90;;;;;;;;;;5145720;27;20464;-82
2023/02/24 00:18:43;;;;;;;30.02;22.30;;;;;;;;;;5147011;27;20446;-82
2023/02/24 00:21:13;;;;;;;23.50;21.20;;;;;;;;;;5145851;27;20227;-83
2023/02/24 00:23:42;;;;;;;22.70;20.57;;;;;;;;;;5145814;27;20205;-82
2023/02/24 00:26:10;;;;;;;22.27;20.67;;;;;;;;;;5146157;27;20458;-81
2023/02/24 00:28:37;;;;;;;24.15;21.73;;;;;;;;;;5145937;27;20214;-82
2023/02/24 00:31:05;;;;;;;26.38;21.60;;;;;;;;;;5145544;27;20200;-82
2023/02/24 00:33:32;;;;;;;23.20;20.87;;;;;;;;;;5144895;27;20231;-82
2023/02/24 00:36:06;;;;;;;22.50;20.20;;;;;;;;;;5145926;27;20500;-82
2023/02/24 00:38:34;;;;;;;27.80;21.98;;;;;;;;;;5145535;27;20201;-82
2023/02/24 00:41:08;;;;;;;23.98;21.30;;;;;;;;;;5145259;27;20232;-82
2023/02/24 00:43:36;;;;;;;25.60;21.45;;;;;;;;;;5144591;27;20235;-82
2023/02/24 00:46:09;;;;;;;24.27;21.67;;;;;;;;;;5144730;27;20223;-82
2023/02/24 00:48:39;;;;;;;24.30;21.92;;;;;;;;;;5145171;27;20222;-82
2023/02/24 00:51:06;;;;;;;29.02;22.55;;;;;;;;;;5145075;27;20201;-82
2023/02/24 00:53:33;;;;;;;23.17;21.35;;;;;;;;;;5144716;27;20707;-82
2023/02/24 00:56:01;;;;;;;33.67;21.45;;;;;;;;;;5143888;27;20282;-82
2023/02/24 00:58:30;;;;;;;22.85;20.83;;;;;;;;;;5145186;27;20197;-82
2023/02/24 01:00:58;;;;;;;26.13;22.38;;;;;;;;;;5144487;27;20292;-82
2023/02/24 01:03:27;;;;;;;24.75;21.75;;;;;;;;;;5143966;27;20290;-82
2023/02/24 01:05:55;;;;;;;23.25;21.10;;;;;;;;;;5144074;27;20228;-81
2023/02/24 01:08:22;;;;;;;21.80;20.48;;;;;;;;;;5143674;27;20220;-82
2023/02/24 01:12:00;;;;;;;26.92;21.27;;;;;;;;;;5144924;27;20193;-82
2023/02/24 01:13:43;;;;;;;23.52;21.50;;;;;;;;;;5144664;27;20219;-82
2023/02/24 01:16:12;;;;;;;26.42;22.00;;;;;;;;;;5145375;27;20758;-82
2023/02/24 01:18:39;;;;;;;24.95;22.00;;;;;;;;;;5143918;27;20201;-82
2023/02/24 01:21:06;;;;;;;24.40;21.52;;;;;;;;;;5144608;27;20201;-82
2023/02/24 01:23:33;;;;;;;23.35;21.42;;;;;;;;;;5143611;27;20198;-82
2023/02/24 01:26:00;;;;;;;24.63;22.25;;;;;;;;;;5143520;27;20228;-82
2023/02/24 01:28:27;;;;;;;24.23;21.90;;;;;;;;;;5144789;27;20227;-82
2023/02/24 01:30:56;;;;;;;23.65;21.50;;;;;;;;;;5144580;27;20211;-82
2023/02/24 01:33:23;;;;;;;24.33;22.00;;;;;;;;;;5143392;27;20205;-82
2023/02/24 01:35:49;;;;;;;24.65;21.70;;;;;;;;;;5144326;27;20225;-82
2023/02/24 01:38:21;;;;;;;23.07;21.17;;;;;;;;;;5144731;27;20205;-82
2023/02/24 01:40:55;;;;;;;22.70;20.70;;;;;;;;;;5144209;27;20451;-82
2023/02/24 01:43:22;;;;;;;24.27;20.80;;;;;;;;;;5143935;27;20455;-82
2023/02/24 01:45:50;;;;;;;24.88;21.00;;;;;;;;;;5143959;27;20680;-82
2023/02/24 01:48:20;;;;;;;23.03;21.03;;;;;;;;;;5144235;27;20288;-82
2023/02/24 01:50:49;;;;;;;25.98;21.77;;;;;;;;;;5143433;27;20927;-82
2023/02/24 01:53:16;;;;;;;23.87;21.93;;;;;;;;;;5142899;27;20197;-82
2023/02/24 01:55:47;;;;;;;36.33;22.17;;;;;;;;;;5143131;27;20983;-82
2023/02/24 01:58:19;;;;;;;22.88;20.70;;;;;;;;;;5144005;27;20279;-82
2023/02/24 02:00:46;;;;;;;25.35;23.00;;;;;;;;;;5143913;27;20276;-82
2023/02/24 02:03:17;;;;;;;25.30;22.60;;;;;;;;;;5143234;28;20209;-82
2023/02/24 02:05:47;;;;;;;22.85;20.65;;;;;;;;;;5144010;28;20225;-82
2023/02/24 02:08:14;;;;;;;24.13;21.65;;;;;;;;;;5144202;28;20251;-82
2023/02/24 02:10:44;;;;;;;25.48;22.02;;;;;;;;;;5143647;28;20224;-82
2023/02/24 02:13:12;;;;;;;25.75;22.08;;;;;;;;;;5142910;28;20276;-82
2023/02/24 02:15:42;;;;;;;23.42;21.35;;;;;;;;;;5142669;28;20221;-82
2023/02/24 02:18:14;;;;;;;27.63;21.47;;;;;;;;;;5143451;28;20205;-82
2023/02/24 02:21:00;;;;;;;23.37;21.10;;;;;;;;;;5143768;28;20476;-81
2023/02/24 02:23:45;;;;;;;35.83;22.60;;;;;;;;;;5143880;28;20456;-82
2023/02/24 02:26:19;;;;;;;24.23;21.05;;;;;;;;;;5143604;28;20270;-82
2023/02/24 02:28:59;;;;;;;22.37;20.73;;;;;;;;;;5143899;28;20224;-81
2023/02/24 02:31:49;;;;;;;28.77;20.90;;;;;;;;;;5143208;28;20416;-81
2023/02/24 02:34:28;;;;;;;23.88;21.50;;;;;;;;;;5137908;28;20201;-82
2023/02/24 02:36:58;;;;;;;28.10;22.00;;;;;;;;;;5143541;28;20231;-82
2023/02/24 02:39:30;;;;;;;24.30;21.30;;;;;;;;;;5144036;28;20231;-82
2023/02/24 02:42:04;;;;;;;25.53;21.63;;;;;;;;;;5142807;28;20476;-82
2023/02/24 02:44:35;;;;;;;27.17;21.35;;;;;;;;;;5143350;27;20442;-82
2023/02/24 02:47:09;;;;;;;22.88;20.55;;;;;;;;;;5147471;27;20225;-82
2023/02/24 02:49:39;;;;;;;23.73;21.35;;;;;;;;;;5147891;27;20239;-82
2023/02/24 02:52:12;;;;;;;23.10;21.10;;;;;;;;;;5146330;27;20213;-82
2023/02/24 02:54:45;;;;;;;22.00;20.00;;;;;;;;;;5147380;27;20209;-82
2023/02/24 02:57:14;;;;;;;26.93;21.07;;;;;;;;;;5147262;27;20964;-82
2023/02/24 02:59:44;;;;;;;22.70;20.47;;;;;;;;;;5147507;27;20473;-82
2023/02/24 03:02:17;;;;;;;22.85;20.60;;;;;;;;;;5146956;27;20522;-82
2023/02/24 03:04:47;;;;;;;26.23;20.17;;;;;;;;;;5147206;27;20254;-82
2023/02/24 03:07:16;;;;;;;22.15;20.05;;;;;;;;;;5147052;27;20194;-82
2023/02/24 03:09:45;;;;;;;23.58;20.45;;;;;;;;;;5147427;27;20213;-82
2023/02/24 03:12:16;;;;;;;22.10;20.35;;;;;;;;;;5146644;27;20206;-82
2023/02/24 03:14:45;;;;;;;22.58;20.33;;;;;;;;;;5147298;27;20257;-82
2023/02/24 03:17:15;;;;;;;20.93;19.30;;;;;;;;;;5147089;27;20311;-82
2023/02/24 03:19:42;;;;;;;22.13;20.10;;;;;;;;;;5146895;27;20863;-82
2023/02/24 03:22:13;;;;;;;23.42;21.00;;;;;;;;;;5146448;27;20505;-82
2023/02/24 03:24:41;;;;;;;25.70;20.55;;;;;;;;;;5146949;27;20197;-82
2023/02/24 03:27:11;;;;;;;25.17;21.63;;;;;;;;;;5147234;27;20190;-82
2023/02/24 03:29:44;;;;;;;23.38;20.05;;;;;;;;;;5146860;27;20221;-82
2023/02/24 03:32:14;;;;;;;24.52;22.58;;;;;;;;;;5146705;27;20200;-82
2023/02/24 03:34:46;;;;;;;22.50;20.30;;;;;;;;;;5146682;27;20257;-82
2023/02/24 03:37:14;;;;;;;21.27;19.67;;;;;;;;;;5146785;27;20264;-82
2023/02/24 03:39:41;;;;;;;21.85;20.25;;;;;;;;;;5147725;27;20439;-82
2023/02/24 03:42:11;;;;;;;21.77;20.05;;;;;;;;;;5146243;27;20197;-81
2023/02/24 03:44:38;;;;;;;21.65;19.90;;;;;;;;;;5146737;27;20249;-81
2023/02/24 03:47:08;;;;;;;21.45;19.85;;;;;;;;;;5146869;27;20225;-82
2023/02/24 03:49:37;;;;;;;21.95;19.90;;;;;;;;;;5145894;27;20297;-82
2023/02/24 03:52:09;;;;;;;22.55;20.42;;;;;;;;;;5145771;27;20197;-82
2023/02/24 03:54:51;;;;;;;22.48;20.48;;;;;;;;;;5146724;27;20256;-82
2023/02/24 03:57:22;;;;;;;21.85;20.00;;;;;;;;;;5146331;27;20272;-81
2023/02/24 03:59:52;;;;;;;22.02;20.13;;;;;;;;;;5145570;27;20201;-82
2023/02/24 04:02:22;;;;;;;22.02;20.40;;;;;;;;;;5146066;27;20281;-82
2023/02/24 04:04:51;;;;;;;22.75;20.25;;;;;;;;;;5145601;27;20253;-82
2023/02/24 04:07:25;;;;;;;22.00;20.10;;;;;;;;;;5144947;27;20225;-82
2023/02/24 04:09:58;;;;;;;26.88;24.27;;;;;;;;;;5145720;27;20250;-82
2023/02/24 04:12:27;;;;;;;23.38;21.48;;;;;;;;;;5144442;27;20255;-82
2023/02/24 04:14:56;;;;;;;224.43;98.63;;;;;;;;;;5145640;27;20254;-82
2023/02/24 04:17:27;;;;;;;233.68;107.53;;;;;;;;;;5145622;27;20208;-82
2023/02/24 04:19:56;;;;;;;25.55;23.23;;;;;;;;;;5145473;27;20198;-82
2023/02/24 04:22:25;;;;;;;23.50;21.17;;;;;;;;;;5145578;27;20204;-82
2023/02/24 04:24:55;;;;;;;32.42;27.38;;;;;;;;;;5145225;27;20205;-81
2023/02/24 04:27:23;;;;;;;26.08;23.88;;;;;;;;;;5144826;27;20625;-81
2023/02/24 04:29:52;;;;;;;23.13;21.00;;;;;;;;;;5145575;27;20695;-82
2023/02/24 04:32:22;;;;;;;23.15;20.98;;;;;;;;;;5144764;27;20194;-82
2023/02/24 04:34:49;;;;;;;23.70;21.85;;;;;;;;;;5145409;27;20205;-82
2023/02/24 04:37:16;;;;;;;22.20;20.27;;;;;;;;;;5145293;27;20224;-82
2023/02/24 04:39:44;;;;;;;30.85;28.13;;;;;;;;;;5144480;27;20205;-82
2023/02/24 04:42:13;;;;;;;23.73;21.80;;;;;;;;;;5144874;27;20201;-82
2023/02/24 04:44:41;;;;;;;36.13;32.70;;;;;;;;;;5145687;27;20258;-82
2023/02/24 04:47:10;;;;;;;22.75;20.73;;;;;;;;;;5143909;27;20209;-81
2023/02/24 04:49:39;;;;;;;21.98;19.83;;;;;;;;;;5144671;27;20250;-82
2023/02/24 04:52:07;;;;;;;21.33;19.42;;;;;;;;;;5144892;27;20685;-82
2023/02/24 04:54:34;;;;;;;22.45;20.33;;;;;;;;;;5145907;27;20229;-82
2023/02/24 04:57:02;;;;;;;21.05;19.15;;;;;;;;;;5144905;27;20221;-82
2023/02/24 04:59:31;;;;;;;19.42;18.27;;;;;;;;;;5144755;27;20201;-82
2023/02/24 05:02:00;;;;;;;23.17;21.00;;;;;;;;;;5143671;27;20197;-82
2023/02/24 05:04:28;;;;;;;20.80;19.02;;;;;;;;;;5145149;27;20208;-82
2023/02/24 05:06:56;;;;;;;22.23;20.15;;;;;;;;;;5144588;27;20221;-82
2023/02/24 05:09:27;;;;;;;21.58;19.67;;;;;;;;;;5145060;27;20204;-82
2023/02/24 05:11:57;;;;;;;20.98;19.45;;;;;;;;;;5144388;27;20263;-82
2023/02/24 05:14:25;;;;;;;23.83;21.52;;;;;;;;;;5144425;27;20201;-82
2023/02/24 05:16:58;;;;;;;23.48;21.10;;;;;;;;;;5144364;27;20221;-82
2023/02/24 05:22:13;;;;;;;22.42;20.77;;;;;;;;;;5143171;27;20180;-82
2023/02/24 05:24:41;;;;;;;21.58;19.77;;;;;;;;;;5144326;27;20306;-82
2023/02/24 05:27:08;;;;;;;20.80;19.48;;;;;;;;;;5144116;27;20647;-81
2023/02/24 05:29:35;;;;;;;21.77;20.15;;;;;;;;;;5144205;27;20197;-82
2023/02/24 05:32:04;;;;;;;22.13;19.88;;;;;;;;;;5143775;27;20205;-82
2023/02/24 05:34:32;;;;;;;20.92;19.40;;;;;;;;;;5143860;27;20212;-82
2023/02/24 05:37:00;;;;;;;22.73;20.73;;;;;;;;;;5144148;27;20225;-82
2023/02/24 05:39:28;;;;;;;22.05;20.45;;;;;;;;;;5143855;27;20215;-82
2023/02/24 05:41:55;;;;;;;21.95;20.20;;;;;;;;;;5142339;27;20205;-82
2023/02/24 05:44:24;;;;;;;22.33;20.50;;;;;;;;;;5144262;27;20201;-82
2023/02/24 05:46:55;;;;;;;21.80;20.33;;;;;;;;;;5143691;27;20230;-82
2023/02/24 05:49:26;;;;;;;22.23;20.52;;;;;;;;;;5144204;27;20205;-82
2023/02/24 05:51:54;;;;;;;22.70;20.80;;;;;;;;;;5142702;27;20211;-81
2023/02/24 05:54:22;;;;;;;23.30;21.55;;;;;;;;;;5143445;27;20205;-82
2023/02/24 05:56:49;;;;;;;26.70;22.02;;;;;;;;;;5144179;27;20292;-83
2023/02/24 05:59:20;;;;;;;23.45;21.25;;;;;;;;;;5144472;27;20192;-82
2023/02/24 06:01:47;;;;;;;22.98;21.17;;;;;;;;;;5142842;27;20186;-82
2023/02/24 06:04:26;;;;;;;24.08;21.80;;;;;;;;;;5144162;27;20725;-82
2023/02/24 06:06:55;;;;;;;22.92;21.20;;;;;;;;;;5143487;27;20243;-82
2023/02/24 06:09:22;;;;;;;22.05;20.00;;;;;;;;;;5144439;28;20208;-82
2023/02/24 06:11:50;;;;;;;21.65;19.55;;;;;;;;;;5142907;27;20304;-82
2023/02/24 06:14:17;;;;;;;21.95;19.92;;;;;;;;;;5143048;28;20261;-82
2023/02/24 06:16:44;;;;;;;21.05;19.63;;;;;;;;;;5143700;28;20310;-82
2023/02/24 06:19:12;;;;;;;22.38;20.55;;;;;;;;;;5143466;27;20201;-82
2023/02/24 06:21:40;;;;;;;21.55;20.17;;;;;;;;;;5146688;27;20557;-83
2023/02/24 06:24:13;;;;;;;22.00;20.30;;;;;;;;;;5146841;27;20272;-81
2023/02/24 06:26:42;;;;;;;21.63;19.88;;;;;;;;;;5147497;27;20227;-82
2023/02/24 06:29:12;;;;;;;21.17;19.90;;;;;;;;;;5146950;27;20209;-82
2023/02/24 06:31:39;;;;;;;20.90;19.50;;;;;;;;;;5146349;27;20221;-82
2023/02/24 06:34:09;;;;;;;21.67;19.88;;;;;;;;;;5146764;27;20208;-82
2023/02/24 06:36:36;;;;;;;20.95;19.60;;;;;;;;;;5147755;27;20276;-82
2023/02/24 06:39:06;;;;;;;22.70;20.80;;;;;;;;;;5147258;27;20193;-82
2023/02/24 06:41:36;;;;;;;21.35;19.88;;;;;;;;;;5146836;27;20217;-82
2023/02/24 06:44:03;;;;;;;21.73;20.15;;;;;;;;;;5147650;27;20200;-82
2023/02/24 06:46:30;;;;;;;24.88;20.70;;;;;;;;;;5147134;27;20236;-83
2023/02/24 06:48:57;;;;;;;22.10;20.50;;;;;;;;;;5147422;27;20303;-82
2023/02/24 06:51:28;;;;;;;22.70;21.00;;;;;;;;;;5147822;27;20316;-85
2023/02/24 06:53:56;;;;;;;23.25;21.67;;;;;;;;;;5143253;27;20769;-84
2023/02/24 06:56:24;;;;;;;22.20;20.70;;;;;;;;;;5143042;27;20229;-84
2023/02/24 06:58:54;;;;;;;21.50;20.27;;;;;;;;;;5142985;27;20215;-84
2023/02/24 07:01:24;;;;;;;23.02;21.33;;;;;;;;;;5143454;27;20199;-84
2023/02/24 07:04:16;;;;;;;21.85;20.33;;;;;;;;;;5143000;27;20241;-84
2023/02/24 07:06:44;;;;;;;21.70;20.20;;;;;;;;;;5143535;27;20224;-84
2023/02/24 07:09:12;;;;;;;22.90;21.00;;;;;;;;;;5143223;27;20615;-84
2023/02/24 07:11:41;;;;;;;22.25;20.55;;;;;;;;;;5142966;27;20257;-84
2023/02/24 07:14:10;;;;;;;22.73;20.85;;;;;;;;;;5142043;28;20232;-84
2023/02/24 07:16:40;;;;;;;22.52;20.23;;;;;;;;;;5141539;27;20217;-85
2023/02/24 07:19:10;;;;;;;21.40;20.10;;;;;;;;;;5141829;28;20192;-86
2023/02/24 07:21:39;;;;;;;21.30;20.10;;;;;;;;;;5140859;28;20196;-84
2023/02/24 07:24:06;;;;;;;21.67;19.92;;;;;;;;;;5142048;28;20204;-84
2023/02/24 07:26:33;;;;;;;22.70;20.73;;;;;;;;;;5142132;28;20240;-84
2023/02/24 07:29:03;;;;;;;21.20;19.60;;;;;;;;;;5142234;28;20640;-84
2023/02/24 07:31:33;;;;;;;21.45;19.75;;;;;;;;;;5140664;27;20351;-84
2023/02/24 07:34:00;;;;;;;22.08;19.98;;;;;;;;;;5142571;28;20204;-84
2023/02/24 07:36:28;;;;;;;23.92;21.40;;;;;;;;;;5142608;28;20727;-84
2023/02/24 07:38:57;;;;;;;21.48;19.73;;;;;;;;;;5142256;28;20654;-84
2023/02/24 07:41:25;;;;;;;23.85;21.45;;;;;;;;;;5141495;28;20624;-85
2023/02/24 07:43:53;;;;;;;21.67;20.15;;;;;;;;;;5142298;28;20211;-84
2023/02/24 07:46:23;;;;;;;22.95;21.58;;;;;;;;;;5142271;28;20236;-84
2023/02/24 07:48:52;;;;;;;22.50;20.85;;;;;;;;;;5142336;28;20205;-85
2023/02/24 07:51:20;;;;;;;25.50;23.20;;;;;;;;;;5141418;28;20221;-85
2023/02/24 07:53:49;;;;;;;22.92;21.40;;;;;;;;;;5140708;28;20208;-84
2023/02/24 07:56:17;;;;;;;23.10;21.55;;;;;;;;;;5140656;28;20224;-84
2023/02/24 07:58:44;;;;;;;24.67;22.48;;;;;;;;;;5140304;28;20292;-84
2023/02/24 08:01:21;;;;;;;22.65;21.10;;;;;;;;;;5140744;28;20660;-85
2023/02/24 08:03:49;;;;;;;22.45;20.83;;;;;;;;;;5140056;27;20672;-84
2023/02/24 08:06:25;;;;;;;23.23;21.17;;;;;;;;;;5140592;28;20225;-84
2023/02/24 08:09:09;;;;;;;23.30;21.08;;;;;;;;;;5140601;28;20257;-84
2023/02/24 08:11:41;;;;;;;21.38;20.08;;;;;;;;;;5104321;27;1019068;-84
2023/02/24 08:14:12;;;;;;;21.63;19.73;;;;;;;;;;5141517;27;20565;-84
2023/02/24 08:16:39;;;;;;;43.40;21.48;;;;;;;;;;5140618;27;20246;-84
2023/02/24 08:19:06;;;;;;;22.70;20.73;;;;;;;;;;5141011;27;20210;-83
2023/02/24 08:21:39;;;;;;;23.13;20.95;;;;;;;;;;5140619;27;20258;-85
2023/02/24 08:24:08;;;;;;;20.40;19.30;;;;;;;;;;5141189;27;20216;-83
2023/02/24 08:26:43;;;;;;;22.30;20.77;;;;;;;;;;5140889;27;20688;-83
2023/02/24 08:29:10;;;;;;;22.15;20.40;;;;;;;;;;5141598;27;20287;-84
2023/02/24 08:31:37;;;;;;;22.05;20.30;;;;;;;;;;5138372;27;20234;-80
2023/02/24 08:34:04;;;;;;;20.85;19.65;;;;;;;;;;5139427;27;20188;-81
2023/02/24 08:36:31;;;;;;;25.75;23.65;;;;;;;;;;5138807;27;20270;-81
2023/02/24 08:39:00;;;;;;;31.38;28.33;;;;;;;;;;5138637;27;20234;-81
2023/02/24 08:41:43;;;;;;;22.10;20.80;;;;;;;;;;5138458;27;20200;-81
2023/02/24 08:44:10;;;;;;;25.13;23.10;;;;;;;;;;5137671;27;20204;-81
2023/02/24 08:46:38;;;;;;;23.90;22.20;;;;;;;;;;5139018;27;20254;-81
2023/02/24 08:49:09;;;;;;;25.23;23.15;;;;;;;;;;5139262;27;20214;-81
2023/02/24 08:51:42;;;;;;;41.53;37.28;;;;;;;;;;5138144;27;20212;-81
2023/02/24 08:54:14;;;;;;;26.50;24.60;;;;;;;;;;5138835;27;20193;-81
2023/02/24 08:56:43;;;;;;;24.67;22.20;;;;;;;;;;5138382;27;20261;-81
2023/02/24 08:59:27;;;;;;;22.15;20.55;;;;;;;;;;5138567;27;20204;-81
2023/02/24 09:02:16;;;;;;;21.55;20.25;;;;;;;;;;5138289;27;20572;-82
2023/02/24 09:04:43;;;;;;;21.88;20.35;;;;;;;;;;5137929;27;20228;-83
2023/02/24 09:07:14;;;;;;;21.05;19.85;;;;;;;;;;5139058;27;20303;-81
2023/02/24 09:09:42;;;;;;;24.48;22.92;;;;;;;;;;5138572;27;20186;-80
2023/02/24 09:12:20;;;;;;;19.48;18.25;;;;;;;;;;5137318;27;20225;-81
2023/02/24 09:14:48;;;;;;;20.85;19.00;;;;;;;;;;5138305;27;20191;-81
2023/02/24 09:17:19;;;;;;;20.48;19.17;;;;;;;;;;5137326;27;20199;-80
2023/02/24 09:22:39;;;;;;;20.23;19.13;;;;;;;;;;5137471;27;20600;-84
2023/02/24 09:25:20;;;;;;;20.48;19.30;;;;;;;;;;5136963;27;20224;-81
2023/02/24 09:27:51;;;;;;;20.85;19.50;;;;;;;;;;5138266;27;20220;-81
2023/02/24 09:30:37;;;;;;;20.08;18.67;;;;;;;;;;5137904;27;20209;-80
2023/02/24 09:33:16;;;;;;;19.63;18.63;;;;;;;;;;5138267;27;20195;-81
2023/02/24 09:35:45;;;;;;;20.50;19.30;;;;;;;;;;5137855;27;20224;-81
2023/02/24 09:38:15;;;;;;;19.73;18.65;;;;;;;;;;5137997;27;20215;-81
2023/02/24 09:40:48;;;;;;;20.88;19.02;;;;;;;;;;5138135;27;20253;-80
2023/02/24 09:43:17;;;;;;;19.80;18.70;;;;;;;;;;5137614;27;20271;-80
2023/02/24 09:45:52;;;;;;;20.33;18.80;;;;;;;;;;5138158;27;20299;-81
2023/02/24 09:48:21;;;;;;;20.55;19.42;;;;;;;;;;5138212;27;20230;-81
2023/02/24 09:51:02;;;;;;;21.83;19.95;;;;;;;;;;5138383;27;20249;-78
2023/02/24 09:53:37;;;;;;;21.00;19.15;;;;;;;;;;5134041;27;20212;-82
2023/02/24 09:56:08;;;;;;;20.42;19.00;;;;;;;;;;5136901;27;20216;-81
2023/02/24 09:58:39;;;;;;;21.33;19.80;;;;;;;;;;5138163;27;20188;-84
2023/02/24 10:01:22;;;;;;;19.70;18.70;;;;;;;;;;5138460;27;20187;-85
2023/02/24 10:03:54;;;;;;;21.67;19.70;;;;;;;;;;5138882;27;20220;-80
2023/02/24 10:06:21;;;;;;;21.73;19.65;;;;;;;;;;5134152;28;20755;-78
2023/02/24 10:08:51;;;;;;;20.65;19.27;;;;;;;;;;5134676;28;20249;-78
2023/02/24 10:11:31;;;;;;;21.52;19.90;;;;;;;;;;5134363;28;20250;-79
2023/02/24 10:13:59;;;;;;;20.40;19.30;;;;;;;;;;5136435;28;20197;-79
2023/02/24 10:16:40;;;;;;;19.45;18.45;;;;;;;;;;5136539;28;20708;-80
2023/02/24 10:19:13;;;;;;;20.73;19.20;;;;;;;;;;5136858;28;20189;-80
2023/02/24 10:21:59;;;;;;;23.08;21.45;;;;;;;;;;5135783;28;20236;-79
2023/02/24 10:24:29;;;;;;;23.50;21.92;;;;;;;;;;5136974;28;20548;-80
2023/02/24 10:26:59;;;;;;;21.98;20.67;;;;;;;;;;5136687;28;20641;-80
2023/02/24 10:29:29;;;;;;;22.48;21.02;;;;;;;;;;5137470;28;20200;-79
2023/02/24 10:32:05;;;;;;;21.20;20.10;;;;;;;;;;5136386;28;20228;-80
2023/02/24 10:34:32;;;;;;;22.63;20.48;;;;;;;;;;5137522;28;20648;-80
2023/02/24 10:37:05;;;;;;;22.65;20.95;;;;;;;;;;5136341;28;20729;-80
2023/02/24 10:39:32;;;;;;;23.63;21.90;;;;;;;;;;5136831;28;20185;-81
2023/02/24 10:42:15;;;;;;;21.50;20.23;;;;;;;;;;5135427;28;20230;-80
2023/02/24 10:44:50;;;;;;;22.98;21.52;;;;;;;;;;5136747;28;20289;-83
2023/02/24 10:47:18;;;;;;;24.70;22.90;;;;;;;;;;5136725;28;20204;-80
2023/02/24 10:49:55;;;;;;;24.35;22.77;;;;;;;;;;5137518;28;20257;-80
2023/02/24 10:52:35;;;;;;;26.70;24.38;;;;;;;;;;5134528;27;20574;-80
2023/02/24 10:55:26;;;;;;;23.40;22.10;;;;;;;;;;5135909;28;20221;-80
2023/02/24 10:58:05;;;;;;;25.17;23.00;;;;;;;;;;5136103;28;20231;-80
2023/02/24 11:03:34;;;;;;;22.58;21.17;;;;;;;;;;5120832;27;20223;-80
2023/02/24 11:06:19;;;;;;;23.92;22.63;;;;;;;;;;5137099;27;20578;-80
2023/02/24 11:09:01;;;;;;;25.42;23.92;;;;;;;;;;5139292;27;20217;-80
2023/02/24 11:17:13;;;;;;;23.58;22.10;;;;;;;;;;5139471;27;20354;-80
2023/02/24 11:17:17;;;;;;;23.90;22.70;;;;;;;;;;5139930;27;20260;-80
2023/02/24 11:19:45;;;;;;;26.33;24.48;;;;;;;;;;5139712;27;20275;-80
2023/02/24 11:22:14;;;;;;;27.65;25.35;;;;;;;;;;5138512;27;20211;-79
2023/02/24 11:24:41;;;;;;;24.98;23.52;;;;;;;;;;5138093;27;20204;-80
2023/02/24 11:27:12;;;;;;;26.73;24.65;;;;;;;;;;5138659;27;20215;-80
2023/02/24 11:29:46;;;;;;;23.48;22.00;;;;;;;;;;5139014;27;20634;-79
2023/02/24 11:32:25;;;;;;;26.50;25.00;;;;;;;;;;5138015;27;20212;-79
2023/02/24 11:34:54;;;;;;;25.75;24.15;;;;;;;;;;5137775;27;20705;-80
2023/02/24 11:37:25;;;;;;;25.08;23.30;;;;;;;;;;5138613;27;20244;-79
2023/02/24 11:39:55;;;;;;;23.63;21.90;;;;;;;;;;5139979;27;20189;-79
2023/02/24 11:42:25;;;;;;;23.70;22.30;;;;;;;;;;5138498;27;20200;-79
2023/02/24 11:44:57;;;;;;;29.70;27.65;;;;;;;;;;5139823;27;20548;-79
2023/02/24 11:47:28;;;;;;;25.95;24.38;;;;;;;;;;5138564;27;20607;-79
2023/02/24 11:50:01;;;;;;;28.45;26.73;;;;;;;;;;5139024;27;20237;-80
2023/02/24 11:52:31;;;;;;;28.70;26.63;;;;;;;;;;5138573;27;20253;-80
2023/02/24 11:55:02;;;;;;;30.88;27.67;;;;;;;;;;5138537;27;20197;-80
2023/02/24 11:57:34;;;;;;;30.20;27.90;;;;;;;;;;5139472;27;20205;-79
2023/02/24 12:00:11;;;;;;;24.75;23.15;;;;;;;;;;5139270;27;20197;-79
2023/02/24 12:02:43;;;;;;;26.80;24.13;;;;;;;;;;5138458;27;20212;-79
2023/02/24 12:05:13;;;;;;;25.17;23.52;;;;;;;;;;5139164;27;20234;-80
2023/02/24 12:07:42;;;;;;;28.55;26.35;;;;;;;;;;5139712;27;20753;-80
2023/02/24 12:10:15;;;;;;;29.52;27.42;;;;;;;;;;5139186;27;20207;-79
2023/02/24 12:12:44;;;;;;;31.85;29.85;;;;;;;;;;5137444;27;20223;-80
2023/02/24 12:15:16;;;;;;;25.92;24.45;;;;;;;;;;5138813;27;20247;-80
2023/02/24 12:17:50;;;;;;;27.25;25.42;;;;;;;;;;5137732;27;20185;-80
2023/02/24 12:20:21;;;;;;;35.13;32.53;;;;;;;;;;5139933;27;20185;-80
2023/02/24 12:22:51;;;;;;;27.85;26.25;;;;;;;;;;5137720;27;20255;-80
2023/02/24 12:25:19;;;;;;;36.92;33.83;;;;;;;;;;5138679;27;20314;-80
2023/02/24 12:27:55;;;;;;;37.80;35.25;;;;;;;;;;5138339;27;20197;-79
2023/02/24 12:30:34;;;;;;;42.10;38.47;;;;;;;;;;5138969;27;20248;-83
2023/02/24 12:33:04;;;;;;;46.05;41.70;;;;;;;;;;5137725;27;20281;-80
2023/02/24 12:35:38;;;;;;;40.35;37.15;;;;;;;;;;5138992;27;20231;-80
2023/02/24 12:38:10;;;;;;;37.33;34.35;;;;;;;;;;5139580;27;20199;-80
2023/02/24 12:40:44;;;;;;;42.75;39.42;;;;;;;;;;5140470;27;20592;-81
2023/02/24 12:43:16;;;;;;;39.08;36.30;;;;;;;;;;5139292;27;20233;-82
2023/02/24 12:45:51;;;;;;;35.10;32.60;;;;;;;;;;5138911;27;20227;-81
2023/02/24 12:48:26;;;;;;;35.50;33.35;;;;;;;;;;5138834;27;20215;-80
2023/02/24 12:50:57;;;;;;;43.05;39.90;;;;;;;;;;5136811;27;20192;-80
2023/02/24 12:53:29;;;;;;;41.97;39.15;;;;;;;;;;5138125;27;20247;-80
2023/02/24 12:56:02;;;;;;;41.55;37.92;;;;;;;;;;5139592;27;20235;-81
2023/02/24 12:58:31;;;;;;;36.78;34.08;;;;;;;;;;5138525;27;20208;-80
2023/02/24 13:01:05;;;;;;;43.63;40.20;;;;;;;;;;5139456;27;20205;-80
2023/02/24 13:03:38;;;;;;;48.70;44.45;;;;;;;;;;5138577;27;20661;-80
2023/02/24 13:06:12;;;;;;;42.88;39.08;;;;;;;;;;5138510;27;20220;-80
2023/02/24 13:08:44;;;;;;;46.15;41.70;;;;;;;;;;5137356;27;20219;-80
2023/02/24 13:11:16;;;;;;;36.55;33.88;;;;;;;;;;5139527;27;20192;-80
2023/02/24 13:13:49;;;;;;;40.88;37.33;;;;;;;;;;5138490;27;20228;-80
2023/02/24 13:16:28;;;;;;;33.67;31.27;;;;;;;;;;5138907;27;20223;-80
2023/02/24 13:19:04;;;;;;;38.63;35.63;;;;;;;;;;5139240;27;20193;-80
2023/02/24 13:21:32;;;;;;;48.40;44.60;;;;;;;;;;5137851;27;20215;-80
2023/02/24 13:24:00;;;;;;;46.15;42.17;;;;;;;;;;5138310;27;20197;-80
2023/02/24 13:26:28;;;;;;;39.95;36.92;;;;;;;;;;5136924;27;20225;-80
2023/02/24 13:29:03;;;;;;;38.38;35.28;;;;;;;;;;5138052;27;20208;-80
2023/02/24 13:31:42;;;;;;;43.80;40.25;;;;;;;;;;5137218;27;20195;-80
2023/02/24 13:34:16;;;;;;;45.67;42.08;;;;;;;;;;5137387;27;20212;-79
2023/02/24 13:36:47;;;;;;;38.42;35.85;;;;;;;;;;5136541;27;20694;-80
2023/02/24 13:39:22;;;;;;;43.13;39.72;;;;;;;;;;5137281;27;20215;-80
2023/02/24 13:41:49;;;;;;;48.08;44.15;;;;;;;;;;5137540;27;20205;-80
2023/02/24 13:44:24;;;;;;;47.92;43.70;;;;;;;;;;5138049;27;20232;-80
2023/02/24 13:46:59;;;;;;;42.45;38.95;;;;;;;;;;5137364;27;20704;-82
2023/02/24 13:49:30;;;;;;;40.20;36.65;;;;;;;;;;5136967;27;20204;-80
2023/02/24 13:52:00;;;;;;;44.55;41.10;;;;;;;;;;5137679;27;20202;-80
2023/02/24 13:54:34;;;;;;;38.38;35.88;;;;;;;;;;5138091;27;20550;-80
2023/02/24 13:57:06;;;;;;;43.53;38.90;;;;;;;;;;5137858;27;20221;-80
2023/02/24 13:59:42;;;;;;;40.08;36.97;;;;;;;;;;5137244;27;20614;-80
2023/02/24 14:02:14;;;;;;;35.92;33.13;;;;;;;;;;5137111;27;20195;-80
2023/02/24 14:04:46;;;;;;;35.58;32.80;;;;;;;;;;5136971;27;20701;-81
2023/02/24 14:07:18;;;;;;;38.42;35.45;;;;;;;;;;5141169;27;20618;-82
2023/02/24 14:09:47;;;;;;;38.60;35.30;;;;;;;;;;5141087;28;20208;-83
2023/02/24 14:12:15;;;;;;;36.85;34.15;;;;;;;;;;5140248;27;20194;-82
2023/02/24 14:14:43;;;;;;;36.40;33.83;;;;;;;;;;5141765;28;20178;-83
2023/02/24 14:17:23;;;;;;;40.67;37.58;;;;;;;;;;5140878;27;20264;-83
2023/02/24 14:19:50;;;;;;;36.10;33.70;;;;;;;;;;5141384;28;20209;-82
2023/02/24 14:22:19;;;;;;;30.75;28.60;;;;;;;;;;5140798;28;20656;-82
2023/02/24 14:24:46;;;;;;;33.13;30.48;;;;;;;;;;5140441;28;20210;-82
2023/02/24 14:27:20;;;;;;;31.17;28.63;;;;;;;;;;5139763;27;20253;-82
2023/02/24 14:29:47;;;;;;;36.13;33.15;;;;;;;;;;5140912;28;20206;-82
2023/02/24 14:32:19;;;;;;;38.05;34.95;;;;;;;;;;5140487;28;20248;-82
2023/02/24 14:34:48;;;;;;;35.45;32.70;;;;;;;;;;5141206;28;20218;-82
2023/02/24 14:37:16;;;;;;;37.80;34.58;;;;;;;;;;5140154;27;20205;-82
2023/02/24 14:39:49;;;;;;;36.60;33.40;;;;;;;;;;5140048;27;20215;-83
2023/02/24 14:42:17;;;;;;;33.72;30.92;;;;;;;;;;5143872;27;20196;-83
2023/02/24 14:44:44;;;;;;;30.73;28.13;;;;;;;;;;5145240;27;20253;-83
2023/02/24 14:47:13;;;;;;;36.17;33.28;;;;;;;;;;5145007;27;20208;-82
2023/02/24 14:49:40;;;;;;;33.75;31.33;;;;;;;;;;5145354;27;20268;-83